Sligo Airport - TAF
(Terminal Area Forecast)

Issued at 21:21 UTC on Thu. 18-Jan-18

--- METARS(SA) ---

METAR EISG(SLIGO) 182030Z 24012KT 9000 BKN017 BKN030 BKN044 02/01

Q1003 =

--- TAFS() ---

TAF EISG(SLIGO) 182000Z 1821/1906 24013KT 9999 FEW020 SCT030 TEMPO

1821/1906 25015G26KT 5000 SHRA BKN015 SCT018CB PROB30 TEMPO 1823/1906

3000 SHRAGS BKN010 =

--- SIGMETS(WS) ---

IE - No VALID SIGMETS/Warnings FOR THIS AREA

--- SIGMETS Volcanic(WV) ---

IE - No VALID SIGMETS/Warnings FOR THIS AREA

--- SIGMETS(WS) ---

UK - No VALID SIGMETS/Warnings FOR THIS AREA

Sligo Airport - METARs

Latest METARs for Sligo and Donegal Airports - updated every 30 mins